Time;durP1;ratioP1;P1;durP2;ratioP2;P2;SDS_P1;SDS_P2;PMS_P1;PMS_P2;Temp;Humidity;BMP_temperature;BMP_pressure;BME280_temperature;BME280_humidity;BME280_pressure;Samples;Min_cycle;Max_cycle;Signal;HPM_P1;HPM_P2
2021/01/21 00:00:35;;;;;;;18.30;11.43;;;;;;;0.82;83.46;98844.16;1753157;81;25240;-68
2021/01/21 00:03:05;;;;;;;17.57;11.70;;;;;;;0.78;83.49;98838.77;1768498;80;25329;-69
2021/01/21 00:05:31;;;;;;;20.13;11.47;;;;;;;0.74;83.60;98847.98;1755161;80;25331;-70
2021/01/21 00:08:01;;;;;;;20.27;12.30;;;;;;;0.71;83.72;98842.13;1753166;81;25197;-70
2021/01/21 00:10:28;;;;;;;20.37;12.73;;;;;;;0.68;83.94;98840.98;1753135;81;25087;-70
2021/01/21 00:12:54;;;;;;;19.30;11.57;;;;;;;0.67;84.35;98841.87;1753155;81;25137;-70
2021/01/21 00:15:21;;;;;;;18.27;9.80;;;;;;;0.67;84.46;98833.67;1753087;81;25741;-69
2021/01/21 00:17:48;;;;;;;17.70;11.33;;;;;;;0.67;84.65;98834.11;1758266;80;25146;-70
2021/01/21 00:20:15;;;;;;;18.93;11.40;;;;;;;0.67;84.60;98836.27;1765783;80;25275;-70
2021/01/21 00:22:41;;;;;;;20.60;12.83;;;;;;;0.68;84.76;98833.21;1753226;81;25315;-69
2021/01/21 00:25:09;;;;;;;17.20;11.87;;;;;;;0.68;85.20;98839.22;1762516;80;25649;-70
2021/01/21 00:27:36;;;;;;;21.10;12.33;;;;;;;0.67;84.99;98840.15;1760646;80;25323;-69
2021/01/21 00:30:10;;;;;;;19.77;12.33;;;;;;;0.64;85.01;98841.59;1752529;81;25809;-69
2021/01/21 00:32:37;;;;;;;17.23;12.07;;;;;;;0.63;85.36;98834.73;1768127;79;25320;-69
2021/01/21 00:35:06;;;;;;;22.90;13.67;;;;;;;0.61;85.31;98831.38;1757113;80;25319;-70
2021/01/21 00:37:34;;;;;;;21.67;14.03;;;;;;;0.61;85.43;98827.50;1767421;80;25342;-69
2021/01/21 00:40:00;;;;;;;19.73;12.97;;;;;;;0.59;85.80;98816.83;1764061;80;25734;-69
2021/01/21 00:42:27;;;;;;;19.23;12.67;;;;;;;0.58;85.53;98819.06;1772851;80;25284;-69
2021/01/21 00:44:54;;;;;;;17.73;12.23;;;;;;;0.57;85.57;98816.94;1773809;80;25879;-69
2021/01/21 00:47:20;;;;;;;19.60;12.50;;;;;;;0.55;85.64;98818.73;1764729;79;25323;-70
2021/01/21 00:49:47;;;;;;;19.13;12.80;;;;;;;0.56;85.74;98813.95;1752473;81;25715;-70
2021/01/21 00:52:14;;;;;;;21.40;13.90;;;;;;;0.56;85.66;98806.20;1762202;80;25359;-71
2021/01/21 00:54:40;;;;;;;20.33;13.10;;;;;;;0.55;85.69;98805.36;1760872;79;25378;-70
2021/01/21 00:57:08;;;;;;;21.20;13.30;;;;;;;0.58;85.66;98812.59;1760618;80;25383;-70
2021/01/21 00:59:34;;;;;;;21.33;12.53;;;;;;;0.60;85.79;98812.05;1762382;80;25355;-71
2021/01/21 01:02:02;;;;;;;20.53;13.27;;;;;;;0.59;85.75;98811.22;1759095;80;25575;-70
2021/01/21 01:04:28;;;;;;;18.60;13.00;;;;;;;0.60;85.81;98801.70;1763807;80;25249;-70
2021/01/21 01:06:57;;;;;;;16.63;11.03;;;;;;;0.62;85.87;98802.45;1752384;81;25213;-69
2021/01/21 01:09:24;;;;;;;17.63;11.47;;;;;;;0.63;85.89;98800.25;1754285;80;25276;-69
2021/01/21 01:11:51;;;;;;;16.10;11.40;;;;;;;0.63;85.88;98795.08;1769803;80;25647;-69
2021/01/21 01:14:20;;;;;;;16.90;11.37;;;;;;;0.61;85.92;98789.98;1783598;79;25083;-69
2021/01/21 01:16:47;;;;;;;18.53;11.37;;;;;;;0.59;86.32;98799.58;1769828;79;25206;-70
2021/01/21 01:19:14;;;;;;;17.77;11.27;;;;;;;0.59;86.05;98793.54;1778525;79;25169;-70
2021/01/21 01:21:42;;;;;;;15.70;11.47;;;;;;;0.58;85.97;98788.83;1767892;80;25085;-70
2021/01/21 01:24:10;;;;;;;17.20;11.43;;;;;;;0.57;85.93;98784.59;1752605;81;25161;-70
2021/01/21 01:26:38;;;;;;;17.43;10.53;;;;;;;0.59;86.05;98781.89;1765622;80;25286;-69
2021/01/21 01:29:07;;;;;;;18.20;10.90;;;;;;;0.58;86.08;98784.95;1757739;80;25280;-70
2021/01/21 01:31:34;;;;;;;16.80;10.87;;;;;;;0.60;86.03;98781.83;1770168;80;25637;-70
2021/01/21 01:34:01;;;;;;;18.47;11.60;;;;;;;0.62;86.16;98781.75;1753173;81;25275;-70
2021/01/21 01:36:29;;;;;;;15.13;11.03;;;;;;;0.63;86.09;98787.31;1734421;80;25204;-70
2021/01/21 01:38:57;;;;;;;15.97;11.17;;;;;;;0.66;86.12;98783.28;1742809;81;25157;-70
2021/01/21 01:41:43;;;;;;;18.80;12.43;;;;;;;0.71;86.02;98782.59;1852935;77;27028;-69
2021/01/21 01:44:10;;;;;;;19.17;12.67;;;;;;;0.66;86.02;98785.88;1824803;78;25286;-69
2021/01/21 01:46:37;;;;;;;17.67;11.43;;;;;;;0.65;85.91;98787.60;1792881;78;25733;-69
2021/01/21 01:49:04;;;;;;;17.23;11.57;;;;;;;0.64;85.77;98788.53;1824493;78;25187;-69
2021/01/21 01:51:32;;;;;;;16.93;11.33;;;;;;;0.62;85.68;98785.20;1824620;78;25751;-69
2021/01/21 01:53:59;;;;;;;18.37;11.87;;;;;;;0.61;85.64;98793.86;1788171;80;25650;-69
2021/01/21 01:56:28;;;;;;;17.43;12.10;;;;;;;0.63;85.68;98778.26;1775223;79;25725;-69
2021/01/21 01:58:57;;;;;;;16.77;11.70;;;;;;;0.60;85.61;98777.11;1754117;81;25224;-70
2021/01/21 02:01:29;;;;;;;16.63;11.20;;;;;;;0.58;85.73;98773.30;1787140;80;25225;-70
2021/01/21 02:03:56;;;;;;;16.57;11.47;;;;;;;0.58;85.82;98773.30;1755648;81;25303;-71
2021/01/21 02:06:41;;;;;;;16.13;10.60;;;;;;;0.57;85.90;98779.41;1785593;80;25193;-70
2021/01/21 02:09:10;;;;;;;16.43;10.67;;;;;;;0.54;85.95;98766.16;1755075;81;25710;-70
2021/01/21 02:11:57;;;;;;;16.37;10.73;;;;;;;0.55;86.03;98771.73;1788432;79;25316;-70
2021/01/21 02:15:08;;;;;;;16.37;11.37;;;;;;;0.53;86.06;98769.65;1725588;81;25363;-71
2021/01/21 02:17:58;;;;;;;16.63;11.53;;;;;;;0.51;86.07;98773.24;1779180;79;25260;-69
2021/01/21 02:21:01;;;;;;;19.93;12.47;;;;;;;0.48;86.03;98772.09;1730909;81;25110;-69
2021/01/21 02:24:18;;;;;;;15.83;11.57;;;;;;;0.44;85.97;98767.53;1756663;81;25274;-70
2021/01/21 02:26:55;;;;;;;18.03;11.40;;;;;;;0.42;85.93;98777.12;1711942;83;25270;-71
2021/01/21 02:29:30;;;;;;;16.27;11.17;;;;;;;0.40;85.82;98780.23;1751416;81;25311;-69
2021/01/21 02:32:09;;;;;;;18.80;11.00;;;;;;;0.39;85.78;98774.69;1753975;81;25703;-69
2021/01/21 02:34:54;;;;;;;15.03;10.90;;;;;;;0.35;85.79;98772.72;1751175;80;25734;-70
2021/01/21 02:37:27;;;;;;;15.83;11.10;;;;;;;0.34;85.91;98774.91;1756329;80;25721;-69
2021/01/21 02:40:06;;;;;;;14.77;10.13;;;;;;;0.34;86.07;98775.38;1721097;82;25256;-69
2021/01/21 02:42:45;;;;;;;14.30;10.47;;;;;;;0.32;86.15;98771.57;1707732;82;25207;-69
2021/01/21 02:45:14;;;;;;;17.00;10.70;;;;;;;0.32;86.37;98776.74;1734237;82;25088;-69
2021/01/21 02:47:43;;;;;;;13.80;9.97;;;;;;;0.34;86.43;98777.50;1730750;82;25376;-69
2021/01/21 02:50:11;;;;;;;16.50;10.83;;;;;;;0.39;86.52;98777.28;1706766;82;25313;-70
2021/01/21 02:52:51;;;;;;;14.70;10.33;;;;;;;0.44;86.54;98780.47;1731869;82;25357;-70
2021/01/21 02:55:46;;;;;;;14.27;10.00;;;;;;;0.48;86.65;98779.86;1734140;82;25289;-70
2021/01/21 02:58:23;;;;;;;12.17;9.17;;;;;;;0.49;86.58;98780.25;1754546;81;25300;-69
2021/01/21 03:00:51;;;;;;;13.60;9.40;;;;;;;0.51;86.65;98773.24;1727381;83;25296;-69
2021/01/21 03:03:22;;;;;;;13.23;8.90;;;;;;;0.55;86.79;98771.73;1727293;81;25376;-69
2021/01/21 03:05:54;;;;;;;12.03;8.80;;;;;;;0.60;86.84;98775.35;1735191;81;25729;-70
2021/01/21 03:08:29;;;;;;;13.33;9.00;;;;;;;0.71;86.89;98775.66;1872065;76;27438;-69
2021/01/21 03:11:10;;;;;;;11.13;8.37;;;;;;;0.70;86.80;98774.00;1826516;78;25682;-70
2021/01/21 03:13:41;;;;;;;12.43;9.03;;;;;;;0.73;86.73;98776.88;1829036;77;25607;-69
2021/01/21 03:16:17;;;;;;;14.23;8.90;;;;;;;0.81;86.57;98763.09;1836403;76;26832;-69
2021/01/21 03:18:45;;;;;;;12.03;8.80;;;;;;;0.77;86.49;98770.61;1787437;79;25676;-70
2021/01/21 03:21:13;;;;;;;12.83;8.93;;;;;;;0.82;86.45;98778.15;1752873;80;25752;-69
2021/01/21 03:23:44;;;;;;;14.17;9.60;;;;;;;0.82;86.43;98771.24;1765421;79;25178;-69
2021/01/21 03:26:13;;;;;;;13.53;8.67;;;;;;;0.84;86.52;98766.81;1773778;79;25754;-69
2021/01/21 03:28:41;;;;;;;12.00;8.70;;;;;;;0.85;86.55;98768.47;1735521;80;25154;-69
2021/01/21 03:31:09;;;;;;;10.00;8.63;;;;;;;0.88;86.62;98763.61;1774075;79;25315;-69
2021/01/21 03:33:35;;;;;;;11.03;9.00;;;;;;;0.89;86.74;98763.53;1765369;79;25323;-68
2021/01/21 03:36:03;;;;;;;13.33;9.40;;;;;;;0.91;86.80;98759.57;1779054;79;25292;-69
2021/01/21 03:38:30;;;;;;;12.43;9.13;;;;;;;0.96;86.87;98766.64;1777097;79;25754;-71
2021/01/21 03:41:16;;;;;;;10.47;8.13;;;;;;;1.01;86.90;98763.81;1772956;79;25201;-68
2021/01/21 03:43:45;;;;;;;10.50;8.30;;;;;;;1.07;86.95;98764.33;1778260;79;25280;-68
2021/01/21 03:46:22;;;;;;;10.20;7.47;;;;;;;1.17;86.87;98766.42;1889451;75;26778;-68
2021/01/21 03:48:48;;;;;;;12.23;8.87;;;;;;;1.17;87.00;98761.24;1860342;77;25265;-69
2021/01/21 03:51:17;;;;;;;10.57;8.10;;;;;;;1.24;86.96;98767.77;1829478;77;25573;-69
2021/01/21 03:53:46;;;;;;;10.70;8.13;;;;;;;1.29;86.84;98757.98;1845254;77;25273;-69
2021/01/21 03:56:16;;;;;;;10.80;7.63;;;;;;;1.33;86.76;98753.50;1859501;77;25284;-71
2021/01/21 03:58:43;;;;;;;10.00;7.90;;;;;;;1.39;86.72;98760.92;1846104;76;25371;-68
2021/01/21 04:01:11;;;;;;;9.73;7.60;;;;;;;1.43;86.72;98759.86;1826026;78;25371;-69
2021/01/21 04:03:38;;;;;;;11.80;7.47;;;;;;;1.48;86.71;98761.74;1826580;78;25267;-69
2021/01/21 04:06:06;;;;;;;9.70;7.10;;;;;;;1.51;86.71;98771.09;1833191;77;25344;-69
2021/01/21 04:08:33;;;;;;;9.90;7.50;;;;;;;1.55;86.77;98767.43;1845287;76;25273;-70
2021/01/21 04:11:25;;;;;;;9.83;7.33;;;;;;;1.65;86.71;98766.83;1889458;76;26906;-69
2021/01/21 04:13:53;;;;;;;9.43;7.03;;;;;;;1.65;86.66;98766.00;1827287;77;25634;-69
2021/01/21 04:16:21;;;;;;;8.67;6.80;;;;;;;1.68;86.53;98771.02;1860317;77;25358;-69
2021/01/21 04:18:47;;;;;;;10.03;7.03;;;;;;;1.72;86.37;98764.73;1859934;76;25332;-69
2021/01/21 04:21:16;;;;;;;8.60;6.83;;;;;;;1.77;86.21;98761.90;1855625;77;25693;-70
2021/01/21 04:23:44;;;;;;;10.30;7.50;;;;;;;1.78;86.17;98767.00;1822264;78;25268;-68
2021/01/21 04:26:12;;;;;;;10.27;7.47;;;;;;;1.80;86.21;98769.52;1825866;77;25244;-69
2021/01/21 04:28:41;;;;;;;9.83;7.23;;;;;;;1.83;86.28;98768.05;1772062;80;25308;-69
2021/01/21 04:31:07;;;;;;;8.93;6.77;;;;;;;1.87;86.35;98776.48;1774844;79;25350;-69
2021/01/21 04:33:34;;;;;;;13.13;8.63;;;;;;;1.91;86.43;98768.91;1764543;81;25223;-69
2021/01/21 04:36:03;;;;;;;9.47;6.73;;;;;;;1.95;86.50;98763.94;1764530;79;25159;-69
2021/01/21 04:38:31;;;;;;;11.53;8.23;;;;;;;1.97;86.46;98753.01;1764099;81;25214;-69
2021/01/21 04:41:00;;;;;;;14.60;8.63;;;;;;;1.98;86.47;98762.00;1764167;79;25210;-70
2021/01/21 04:43:38;;;;;;;18.73;10.10;;;;;;;2.08;86.52;98754.55;1889435;75;27029;-69
2021/01/21 04:46:10;;;;;;;24.33;11.67;;;;;;;2.04;86.47;98760.81;1827196;77;25627;-70
2021/01/21 04:48:40;;;;;;;28.10;12.57;;;;;;;2.05;86.39;98758.60;1837857;77;25308;-71
2021/01/21 04:51:09;;;;;;;20.97;9.47;;;;;;;2.08;86.27;98756.28;1784149;80;25602;-70
2021/01/21 04:53:39;;;;;;;23.57;11.10;;;;;;;2.09;86.18;98762.68;1789851;80;25225;-70
2021/01/21 04:56:07;;;;;;;17.93;8.67;;;;;;;2.09;86.10;98755.37;1758282;81;25113;-70
2021/01/21 04:58:51;;;;;;;16.97;8.40;;;;;;;2.11;86.17;98758.27;1790155;80;25320;-71
2021/01/21 05:01:22;;;;;;;12.67;7.67;;;;;;;2.13;86.18;98759.01;1787869;80;25296;-70
2021/01/21 05:03:49;;;;;;;10.87;7.63;;;;;;;2.17;86.20;98770.05;1761122;80;25423;-71
2021/01/21 05:06:32;;;;;;;11.63;7.63;;;;;;;2.23;86.26;98765.34;1804706;79;26935;-70
2021/01/21 05:09:01;;;;;;;10.33;7.30;;;;;;;2.20;86.19;98775.06;1754424;81;25420;-70
2021/01/21 05:11:30;;;;;;;10.93;7.53;;;;;;;2.21;86.04;98767.19;1771427;80;25310;-69
2021/01/21 05:14:17;;;;;;;12.70;8.47;;;;;;;2.19;86.02;98772.08;1732194;81;25300;-72
2021/01/21 05:17:12;;;;;;;11.10;8.17;;;;;;;2.26;86.02;98761.72;1818408;78;27470;-70
2021/01/21 05:19:51;;;;;;;10.73;7.57;;;;;;;2.20;86.00;98760.32;1746949;81;25745;-70
2021/01/21 05:22:29;;;;;;;9.13;6.80;;;;;;;2.28;86.13;98760.34;1844687;76;27408;-69
2021/01/21 05:25:07;;;;;;;10.07;7.20;;;;;;;2.27;86.13;98741.34;1849743;76;27422;-70
2021/01/21 05:27:43;;;;;;;9.67;7.63;;;;;;;2.32;86.23;98752.77;1889412;76;26902;-69
2021/01/21 05:30:13;;;;;;;9.73;7.63;;;;;;;2.29;86.25;98746.45;1820303;77;25062;-69
2021/01/21 05:32:40;;;;;;;9.23;7.50;;;;;;;2.28;86.15;98746.06;1794983;78;25335;-69
2021/01/21 05:35:27;;;;;;;8.00;6.50;;;;;;;2.28;86.08;98748.22;1833346;77;25223;-69
2021/01/21 05:37:56;;;;;;;8.77;6.20;;;;;;;2.27;86.06;98748.30;1858630;77;25204;-69
2021/01/21 05:40:47;;;;;;;9.43;6.70;;;;;;;2.27;86.11;98756.09;1849672;77;25228;-69
2021/01/21 05:43:33;;;;;;;7.87;6.27;;;;;;;2.31;86.16;98753.67;1849855;76;27476;-69
2021/01/21 05:46:11;;;;;;;9.33;6.63;;;;;;;2.25;86.19;98754.05;1785189;78;25202;-70
2021/01/21 05:48:38;;;;;;;9.80;7.00;;;;;;;2.25;86.25;98759.23;1805620;77;25689;-70
2021/01/21 05:51:06;;;;;;;8.47;6.73;;;;;;;2.24;86.28;98754.48;1788479;78;25152;-71
2021/01/21 05:53:33;;;;;;;8.27;6.57;;;;;;;2.22;86.31;98744.20;1788307;78;25104;-70
2021/01/21 05:56:02;;;;;;;8.10;5.43;;;;;;;2.20;86.34;98749.94;1738198;78;25252;-70
2021/01/21 05:58:31;;;;;;;11.63;8.47;;;;;;;2.19;86.37;98752.63;1805439;77;25379;-70
2021/01/21 06:00:58;;;;;;;9.80;7.93;;;;;;;2.14;86.39;98748.98;1732215;80;25222;-70
2021/01/21 06:03:27;;;;;;;10.23;7.20;;;;;;;2.11;86.45;98749.63;1786195;80;25738;-69
2021/01/21 06:06:07;;;;;;;9.97;7.57;;;;;;;2.12;86.53;98743.05;1818442;78;27425;-68
2021/01/21 06:08:41;;;;;;;11.50;8.30;;;;;;;2.07;86.56;98746.84;1757561;81;25222;-70
2021/01/21 06:11:09;;;;;;;12.10;7.83;;;;;;;2.03;86.45;98745.72;1764703;79;25640;-70
2021/01/21 06:13:41;;;;;;;10.33;7.13;;;;;;;2.03;86.62;98743.59;1750524;81;25234;-70
2021/01/21 06:16:09;;;;;;;8.90;6.57;;;;;;;2.01;86.53;98738.93;1737109;82;25226;-69
2021/01/21 06:18:36;;;;;;;7.40;5.80;;;;;;;1.99;86.57;98733.83;1753923;79;25745;-72
2021/01/21 06:21:18;;;;;;;8.57;6.03;;;;;;;2.02;86.59;98734.13;1736154;82;25321;-70
2021/01/21 06:23:58;;;;;;;8.27;5.93;;;;;;;2.03;86.67;98739.23;1736256;82;25289;-71
2021/01/21 06:26:47;;;;;;;7.70;5.90;;;;;;;2.07;86.77;98724.80;1800211;77;26871;-70
2021/01/21 06:29:19;;;;;;;9.80;5.83;;;;;;;2.02;86.99;98727.17;1757272;80;25345;-71
2021/01/21 06:31:50;;;;;;;8.60;6.30;;;;;;;2.05;86.94;98728.77;1784971;79;25343;-70
2021/01/21 06:34:26;;;;;;;8.57;6.30;;;;;;;2.06;87.12;98716.16;1788443;79;25295;-71
2021/01/21 06:37:02;;;;;;;10.40;6.33;;;;;;;2.08;87.11;98715.63;1788445;80;25763;-71
2021/01/21 06:39:39;;;;;;;8.57;6.20;;;;;;;2.09;87.07;98717.28;1788405;79;25228;-70
2021/01/21 06:42:06;;;;;;;12.30;8.30;;;;;;;2.13;87.21;98720.53;1787929;80;25699;-70
2021/01/21 06:44:33;;;;;;;16.17;10.23;;;;;;;2.14;87.19;98719.63;1788407;79;25268;-71
2021/01/21 06:47:00;;;;;;;19.90;12.70;;;;;;;2.15;87.27;98720.83;1788341;79;25584;-70
2021/01/21 06:49:27;;;;;;;20.27;12.27;;;;;;;2.18;87.32;98719.37;1753797;80;25329;-70
2021/01/21 06:51:54;;;;;;;16.40;10.17;;;;;;;2.18;87.28;98714.65;1753394;80;25643;-71
2021/01/21 06:54:20;;;;;;;12.23;9.27;;;;;;;2.18;87.34;98717.25;1722137;83;25287;-70
2021/01/21 06:56:47;;;;;;;12.80;9.23;;;;;;;2.19;87.26;98716.30;1753636;81;25340;-70
2021/01/21 06:59:14;;;;;;;10.47;8.63;;;;;;;2.20;87.28;98727.89;1720362;82;25234;-70
2021/01/21 07:01:43;;;;;;;12.47;9.37;;;;;;;2.20;87.30;98724.47;1726919;83;25732;-73
2021/01/21 07:04:18;;;;;;;11.30;9.10;;;;;;;2.22;87.32;98720.84;1738296;81;25349;-69
2021/01/21 07:07:03;;;;;;;12.50;8.47;;;;;;;2.25;87.38;98721.62;1738301;82;25078;-71
2021/01/21 07:09:28;;;;;;;12.80;8.73;;;;;;;2.26;87.43;98729.75;1738122;81;25343;-70
2021/01/21 07:12:00;;;;;;;11.20;8.67;;;;;;;2.30;87.50;98737.75;1738271;81;25300;-71
2021/01/21 07:14:30;;;;;;;11.80;9.43;;;;;;;2.36;87.61;98738.23;1738394;82;25311;-69
2021/01/21 07:17:05;;;;;;;9.97;7.67;;;;;;;2.41;87.62;98736.20;1738043;82;25324;-70
2021/01/21 07:19:45;;;;;;;10.07;7.50;;;;;;;2.48;87.65;98734.52;1736905;82;25279;-70
2021/01/21 07:22:24;;;;;;;8.73;6.87;;;;;;;2.52;87.64;98722.58;1707768;82;25713;-70
2021/01/21 07:25:02;;;;;;;12.33;7.97;;;;;;;2.55;87.61;98715.09;1728962;82;25358;-71
2021/01/21 07:27:30;;;;;;;11.67;7.63;;;;;;;2.60;87.55;98719.07;1729587;81;25819;-70
2021/01/21 07:30:17;;;;;;;9.97;6.97;;;;;;;2.65;87.57;98716.66;1729484;83;25370;-69
2021/01/21 07:33:23;;;;;;;12.77;9.00;;;;;;;2.77;87.44;98715.94;1818198;78;27000;-70
2021/01/21 07:35:51;;;;;;;17.60;12.53;;;;;;;2.76;87.41;98714.25;1780231;80;25712;-70
2021/01/21 07:38:46;;;;;;;15.57;9.37;;;;;;;2.84;87.31;98708.14;1758322;80;25347;-70
2021/01/21 07:41:45;;;;;;;10.57;7.73;;;;;;;2.91;87.20;98715.09;1727645;82;25660;-71
2021/01/21 07:44:11;;;;;;;11.93;7.63;;;;;;;3.01;87.16;98707.58;1757835;80;25130;-69
2021/01/21 07:46:38;;;;;;;11.40;8.37;;;;;;;3.16;87.06;98714.43;1775027;80;25747;-70
2021/01/21 07:49:27;;;;;;;16.20;10.60;;;;;;;3.28;87.09;98714.95;1789049;80;25289;-70
2021/01/21 07:52:03;;;;;;;14.00;10.00;;;;;;;3.42;87.08;98723.66;1761389;81;25311;-71
2021/01/21 07:57:27;;;;;;;13.70;9.43;;;;;;;3.78;86.78;98740.01;1881612;75;26835;-70
2021/01/21 08:00:02;;;;;;;14.07;9.87;;;;;;;3.83;86.48;98731.44;1849559;77;25200;-71
2021/01/21 08:02:51;;;;;;;14.33;9.33;;;;;;;3.90;86.06;98730.14;1835723;77;25219;-71
2021/01/21 08:05:26;;;;;;;14.43;8.83;;;;;;;3.98;85.99;98722.30;1850045;76;26803;-70
2021/01/21 08:10:34;;;;;;;16.30;14.13;;;;;;;4.08;85.85;98725.48;1811582;78;26896;-71
2021/01/21 08:13:05;;;;;;;12.13;10.13;;;;;;;4.04;85.78;98731.84;1797475;79;25061;-70
2021/01/21 08:15:35;;;;;;;13.17;8.90;;;;;;;4.07;85.69;98733.39;1797574;79;25261;-71
2021/01/21 08:18:02;;;;;;;15.23;10.50;;;;;;;4.09;85.53;98731.07;1797286;79;25634;-71
2021/01/21 08:20:30;;;;;;;53.53;42.93;;;;;;;4.12;85.50;98724.81;1796074;79;25284;-72
2021/01/21 08:23:03;;;;;;;68.60;47.97;;;;;;;4.17;85.26;98724.05;1795415;79;25727;-70
2021/01/21 08:25:42;;;;;;;43.33;32.50;;;;;;;4.19;85.23;98723.94;1795550;79;25368;-71
2021/01/21 08:28:09;;;;;;;21.73;14.63;;;;;;;4.24;84.93;98729.68;1792892;79;25847;-71
2021/01/21 08:30:37;;;;;;;15.10;10.50;;;;;;;4.27;84.81;98722.53;1795373;79;25145;-71
2021/01/21 08:33:25;;;;;;;17.70;11.33;;;;;;;4.35;84.87;98727.69;1795332;79;25333;-71
2021/01/21 08:36:05;;;;;;;17.73;12.63;;;;;;;4.44;85.03;98738.33;1794938;79;25672;-70
2021/01/21 08:38:42;;;;;;;23.83;16.37;;;;;;;4.67;84.96;98743.75;1849793;76;26855;-71
2021/01/21 08:41:16;;;;;;;24.83;18.40;;;;;;;4.74;84.46;98750.23;1819868;77;25334;-71
2021/01/21 08:43:43;;;;;;;20.33;15.97;;;;;;;4.80;84.04;98754.19;1819982;78;25353;-72
2021/01/21 08:46:19;;;;;;;15.73;13.53;;;;;;;4.89;83.72;98756.15;1819906;77;25311;-72
2021/01/21 08:48:47;;;;;;;14.80;12.33;;;;;;;5.00;82.80;98773.68;1819918;78;25691;-70
2021/01/21 08:51:34;;;;;;;15.30;11.27;;;;;;;5.09;82.54;98781.33;1819887;78;25231;-70
2021/01/21 08:54:19;;;;;;;19.83;13.43;;;;;;;5.22;82.10;98786.55;1810670;77;25186;-72
2021/01/21 08:57:08;;;;;;;37.73;22.37;;;;;;;5.29;82.20;98791.69;1796027;78;25234;-71
2021/01/21 08:59:35;;;;;;;22.10;14.80;;;;;;;5.39;81.91;98783.59;1797031;77;25639;-72
2021/01/21 09:04:39;;;;;;;28.87;20.23;;;;;;;5.62;79.98;98781.16;1818413;78;27022;-70
2021/01/21 09:07:08;;;;;;;27.27;18.07;;;;;;;5.52;79.96;98783.09;1789558;80;25723;-70
2021/01/21 09:09:41;;;;;;;19.97;14.40;;;;;;;5.52;80.17;98766.14;1789645;79;25221;-70
2021/01/21 09:12:23;;;;;;;15.80;10.63;;;;;;;5.47;79.88;98742.16;1789644;79;25210;-73
2021/01/21 09:15:03;;;;;;;16.37;11.40;;;;;;;5.43;80.19;98756.83;1788688;79;25374;-70
2021/01/21 09:17:38;;;;;;;15.93;10.27;;;;;;;5.53;79.84;98766.97;1817321;77;26944;-70
2021/01/21 09:23:18;;;;;;;24.50;13.70;;;;;;;5.61;80.25;98766.44;1888190;76;26797;-71
2021/01/21 09:25:45;;;;;;;15.33;10.93;;;;;;;5.57;80.16;98763.22;1821952;77;25433;-71
2021/01/21 09:28:13;;;;;;;14.63;10.47;;;;;;;5.62;79.58;98760.29;1860011;77;25548;-71
2021/01/21 09:30:41;;;;;;;21.20;16.93;;;;;;;5.59;79.63;98750.89;1860254;76;25190;-71
2021/01/21 09:33:07;;;;;;;22.20;16.37;;;;;;;5.60;79.86;98747.35;1860125;77;25216;-71
2021/01/21 09:35:34;;;;;;;14.97;12.73;;;;;;;5.61;79.82;98735.13;1823045;77;25266;-72
2021/01/21 09:38:01;;;;;;;16.67;11.73;;;;;;;5.62;79.92;98736.81;1841375;77;25821;-70
2021/01/21 09:40:32;;;;;;;16.53;10.50;;;;;;;5.65;79.77;98740.48;1826624;78;25299;-70
2021/01/21 09:43:01;;;;;;;16.07;11.00;;;;;;;5.70;79.66;98747.05;1826402;78;25256;-72
2021/01/21 09:45:29;;;;;;;18.67;11.40;;;;;;;5.74;79.83;98742.45;1826519;78;25355;-70
2021/01/21 09:47:56;;;;;;;24.00;15.67;;;;;;;5.81;79.47;98738.92;1794450;78;25331;-70
2021/01/21 09:50:24;;;;;;;32.40;20.23;;;;;;;5.89;78.54;98735.29;1836973;77;25268;-71
2021/01/21 09:52:51;;;;;;;22.70;14.73;;;;;;;5.86;78.92;98723.77;1823676;77;25276;-71
2021/01/21 09:55:18;;;;;;;27.13;14.90;;;;;;;5.87;78.88;98726.27;1851533;76;25678;-70
2021/01/21 09:57:47;;;;;;;19.03;13.80;;;;;;;5.86;78.74;98718.06;1804756;78;25381;-70
2021/01/21 10:00:14;;;;;;;25.73;16.77;;;;;;;5.91;79.03;98718.56;1838199;77;25639;-71
2021/01/21 10:02:41;;;;;;;19.30;13.57;;;;;;;5.92;78.37;98718.11;1860090;77;25189;-71
2021/01/21 10:05:09;;;;;;;22.63;15.00;;;;;;;5.94;78.17;98722.73;1825496;77;25074;-70
2021/01/21 10:07:36;;;;;;;17.10;13.00;;;;;;;6.00;78.45;98727.55;1860126;77;25205;-71
2021/01/21 10:10:04;;;;;;;18.23;12.77;;;;;;;6.05;78.26;98725.44;1858938;77;25817;-72
2021/01/21 10:12:31;;;;;;;17.77;11.93;;;;;;;6.08;77.83;98721.30;1846918;77;25255;-71
2021/01/21 10:14:59;;;;;;;16.70;12.17;;;;;;;6.08;77.56;98721.75;1826644;78;25244;-70
2021/01/21 10:17:26;;;;;;;17.67;14.47;;;;;;;6.02;77.52;98711.30;1826370;78;25721;-71
2021/01/21 10:19:53;;;;;;;24.30;17.10;;;;;;;6.04;77.70;98709.88;1831491;77;25316;-71
2021/01/21 10:22:19;;;;;;;23.50;15.57;;;;;;;6.04;77.71;98702.88;1812177;78;25671;-71
2021/01/21 10:24:47;;;;;;;18.63;12.50;;;;;;;6.03;77.53;98698.59;1802044;78;25703;-70
2021/01/21 10:27:15;;;;;;;18.37;11.80;;;;;;;6.06;77.13;98698.84;1802056;79;25185;-71
2021/01/21 10:29:42;;;;;;;20.40;12.60;;;;;;;6.07;77.04;98697.91;1802160;79;25201;-70
2021/01/21 10:32:09;;;;;;;19.70;12.50;;;;;;;6.05;77.34;98696.72;1801884;79;25232;-71
2021/01/21 10:34:35;;;;;;;16.90;11.57;;;;;;;6.07;77.11;98700.05;1801348;79;25718;-70
2021/01/21 10:37:04;;;;;;;13.73;11.70;;;;;;;6.13;77.11;98708.73;1801520;79;25296;-70
2021/01/21 10:39:30;;;;;;;17.87;13.57;;;;;;;6.27;75.35;98714.72;1801552;78;25252;-70
2021/01/21 10:41:57;;;;;;;20.77;15.93;;;;;;;6.17;76.11;98711.95;1801399;79;25593;-70
2021/01/21 10:44:24;;;;;;;22.07;14.43;;;;;;;6.22;75.78;98709.83;1801487;79;25218;-71
2021/01/21 10:46:51;;;;;;;26.70;18.10;;;;;;;6.23;75.88;98710.17;1801005;78;25672;-70
2021/01/21 10:49:17;;;;;;;18.67;12.90;;;;;;;6.26;75.96;98709.95;1801285;78;25185;-71
2021/01/21 10:51:46;;;;;;;22.70;14.20;;;;;;;6.35;75.98;98716.73;1801586;78;25186;-72
2021/01/21 10:54:12;;;;;;;25.87;17.73;;;;;;;6.42;75.33;98720.55;1801366;78;25201;-72
2021/01/21 10:56:41;;;;;;;25.67;17.03;;;;;;;6.45;75.00;98714.64;1801526;79;25282;-71
2021/01/21 10:59:07;;;;;;;18.17;14.20;;;;;;;6.45;75.04;98716.41;1801455;79;25129;-71
2021/01/21 11:01:35;;;;;;;45.50;24.00;;;;;;;6.51;74.26;98704.20;1800900;78;25130;-70
2021/01/21 11:04:04;;;;;;;34.17;21.03;;;;;;;6.47;74.58;98703.59;1801524;79;25383;-70
2021/01/21 11:06:30;;;;;;;48.30;24.13;;;;;;;6.52;74.46;98704.56;1801225;79;25166;-71
2021/01/21 11:08:57;;;;;;;22.60;13.90;;;;;;;6.57;74.55;98705.50;1801409;79;25698;-71
2021/01/21 11:11:24;;;;;;;23.93;14.07;;;;;;;6.62;74.32;98708.14;1801303;79;25059;-71
2021/01/21 11:13:52;;;;;;;17.53;11.67;;;;;;;6.68;74.71;98705.05;1801385;78;26647;-71
2021/01/21 11:16:19;;;;;;;20.27;14.07;;;;;;;6.78;74.20;98709.09;1801408;79;25320;-71
2021/01/21 11:18:45;;;;;;;19.73;14.67;;;;;;;6.83;74.20;98710.88;1801250;79;25658;-71
2021/01/21 11:21:12;;;;;;;24.03;14.53;;;;;;;6.89;72.98;98699.14;1801335;78;25202;-71
2021/01/21 11:23:39;;;;;;;37.70;28.20;;;;;;;6.93;73.17;98704.95;1801598;78;25186;-70
2021/01/21 11:26:08;;;;;;;20.77;13.80;;;;;;;7.00;72.91;98697.81;1801757;78;25304;-72
2021/01/21 11:28:34;;;;;;;25.17;15.87;;;;;;;7.02;72.98;98695.94;1801484;78;26295;-71
2021/01/21 11:31:01;;;;;;;25.40;16.73;;;;;;;7.03;73.16;98685.81;1801613;78;25264;-71
2021/01/21 11:33:28;;;;;;;26.17;17.70;;;;;;;7.06;73.47;98680.83;1801204;78;25280;-71
2021/01/21 11:35:55;;;;;;;15.80;11.13;;;;;;;7.08;73.09;98674.18;1801589;79;25209;-71
2021/01/21 11:38:22;;;;;;;15.60;10.17;;;;;;;7.12;72.70;98679.51;1801394;79;25635;-70
2021/01/21 11:40:48;;;;;;;20.40;12.57;;;;;;;7.14;71.90;98685.45;1801556;78;25237;-70
2021/01/21 11:43:16;;;;;;;16.87;12.00;;;;;;;7.16;71.79;98685.70;1801358;78;25207;-71
2021/01/21 11:45:45;;;;;;;16.23;11.30;;;;;;;7.15;71.90;98677.97;1801001;79;25691;-71
2021/01/21 11:48:12;;;;;;;16.23;11.00;;;;;;;7.14;72.33;98675.84;1801648;78;25185;-71
2021/01/21 11:50:39;;;;;;;19.43;13.60;;;;;;;7.16;72.56;98674.41;1801471;79;25289;-70
2021/01/21 11:53:06;;;;;;;12.30;9.37;;;;;;;7.17;72.79;98669.06;1801532;78;26659;-70
2021/01/21 11:55:33;;;;;;;16.33;10.57;;;;;;;7.21;72.98;98656.57;1801200;79;26225;-70
2021/01/21 11:57:59;;;;;;;18.83;11.90;;;;;;;7.20;72.92;98651.80;1801312;79;26426;-70
2021/01/21 12:00:27;;;;;;;19.60;12.33;;;;;;;7.22;72.99;98647.30;1801396;79;25697;-71